createdAt,value
2022-09-23T03:43:13.889Z,100834.56
2022-09-23T03:46:18.467Z,100834.56
2022-09-23T03:49:27.858Z,100837.19
2022-09-23T03:52:31.113Z,100830.94
2022-09-23T03:55:34.826Z,100843.22
2022-09-23T03:58:38.182Z,100837.13
2022-09-23T04:01:46.032Z,100830.00
2022-09-23T04:04:49.121Z,100836.00
2022-09-23T04:07:52.272Z,100829.84
2022-09-23T04:11:02.507Z,100845.59
2022-09-23T04:14:05.648Z,100836.84
2022-09-23T04:17:08.766Z,100836.81
2022-09-23T04:20:11.403Z,100835.09
2022-09-23T04:23:16.993Z,100838.56
2022-09-23T04:26:19.518Z,100844.78
2022-09-23T04:29:23.534Z,100844.00
2022-09-23T04:32:26.100Z,100846.56
2022-09-23T04:35:29.000Z,100845.72
2022-09-23T04:38:31.696Z,100844.72
2022-09-23T04:41:34.624Z,100847.34
2022-09-23T04:44:38.993Z,100843.06
2022-09-23T04:47:41.873Z,100851.81
2022-09-23T04:50:44.481Z,100856.00
2022-09-23T04:53:49.725Z,100841.13
2022-09-23T04:56:52.508Z,100849.69
2022-09-23T04:59:56.906Z,100850.59
2022-09-23T05:02:59.519Z,100851.28
2022-09-23T05:06:02.416Z,100857.13
2022-09-23T05:09:07.546Z,100865.69
2022-09-23T05:12:10.645Z,100863.66
2022-09-23T05:15:16.092Z,100867.72
2022-09-23T05:18:20.837Z,100873.56
2022-09-23T05:21:25.358Z,100875.19
2022-09-23T05:24:29.694Z,100868.84
2022-09-23T05:27:32.334Z,100873.75
2022-09-23T05:30:35.992Z,100886.50
2022-09-23T05:33:38.916Z,100881.78
2022-09-23T05:36:41.642Z,100889.25
2022-09-23T05:39:44.093Z,100885.25
2022-09-23T05:42:46.943Z,100884.78
2022-09-23T05:45:49.591Z,100884.22
2022-09-23T05:48:52.731Z,100884.63
2022-09-23T05:51:55.251Z,100883.31
2022-09-23T05:54:58.051Z,100886.25
2022-09-23T05:58:00.717Z,100888.34
2022-09-23T06:01:34.504Z,100882.53
2022-09-23T06:04:37.481Z,100885.34
2022-09-23T06:07:40.133Z,100887.31
2022-09-23T06:10:45.044Z,100887.56
2022-09-23T06:13:48.591Z,100886.84
2022-09-23T06:16:51.590Z,100887.19
2022-09-23T06:19:54.104Z,100884.09
2022-09-23T06:23:09.687Z,100889.72
2022-09-23T06:26:16.868Z,100888.25
2022-09-23T06:29:19.714Z,100888.56
2022-09-23T06:32:22.723Z,100895.97
2022-09-23T06:35:27.752Z,100898.72
2022-09-23T06:38:30.890Z,100898.44
2022-09-23T06:41:33.753Z,100901.47
2022-09-23T06:44:36.373Z,100899.06
2022-09-23T06:47:39.709Z,100904.06
2022-09-23T06:50:42.327Z,100906.34
2022-09-23T06:53:46.897Z,100905.53
2022-09-23T06:56:49.429Z,100916.16
2022-09-23T06:59:55.135Z,100903.16
2022-09-23T07:02:57.815Z,100909.53
2022-09-23T07:06:01.376Z,100912.41
2022-09-23T07:09:06.269Z,100909.28
2022-09-23T07:12:09.172Z,100913.78
2022-09-23T07:15:11.861Z,100909.72
2022-09-23T07:18:14.698Z,100906.47
2022-09-23T07:21:18.891Z,100912.72
2022-09-23T07:24:22.871Z,100922.34
2022-09-23T07:27:26.627Z,100913.41
2022-09-23T07:30:29.460Z,100914.44
2022-09-23T07:33:33.314Z,100918.13
2022-09-23T07:36:37.558Z,100907.03
2022-09-23T07:39:41.546Z,100917.84
2022-09-23T07:42:44.620Z,100913.50
2022-09-23T07:45:47.333Z,100917.31
2022-09-23T07:48:50.930Z,100908.00
2022-09-23T07:51:54.178Z,100907.66
2022-09-23T07:54:57.079Z,100914.59
2022-09-23T07:57:59.680Z,100904.09
2022-09-23T08:01:08.903Z,100910.91
2022-09-23T08:04:17.136Z,100911.94
2022-09-23T08:07:19.839Z,100912.03
2022-09-23T08:10:22.834Z,100909.50
2022-09-23T08:13:25.388Z,100912.03
2022-09-23T08:16:28.333Z,100909.41
2022-09-23T08:19:31.264Z,100910.47
2022-09-23T08:22:34.095Z,100907.06
2022-09-23T08:25:37.015Z,100908.41
2022-09-23T08:28:41.106Z,100908.53
2022-09-23T08:31:44.172Z,100903.53
2022-09-23T08:34:47.126Z,100903.38
2022-09-23T08:37:50.420Z,100899.75
2022-09-23T08:41:04.445Z,100899.34
2022-09-23T08:44:19.399Z,100900.88
2022-09-23T08:47:32.254Z,100902.19
2022-09-23T08:50:50.214Z,100898.28
2022-09-23T08:53:53.206Z,100901.31
2022-09-23T08:56:59.858Z,100902.97
2022-09-23T09:00:04.187Z,100895.63
2022-09-23T09:03:21.255Z,100903.12
2022-09-23T09:06:51.744Z,100892.72
2022-09-23T09:10:18.769Z,100896.97
2022-09-23T09:13:33.460Z,100903.94
2022-09-23T09:17:06.226Z,100888.84
2022-09-23T09:20:16.864Z,100898.69
2022-09-23T09:23:53.897Z,100891.44
2022-09-23T09:26:56.792Z,100895.06
2022-09-23T09:30:01.321Z,100888.03
2022-09-23T09:33:11.702Z,100880.06
2022-09-23T09:36:14.413Z,100883.25
2022-09-23T09:39:17.388Z,100877.53
2022-09-23T09:42:25.159Z,100873.97
2022-09-23T09:45:57.775Z,100873.53
2022-09-23T09:49:26.154Z,100876.28
2022-09-23T09:52:32.406Z,100865.28
2022-09-23T09:55:35.563Z,100862.31
2022-09-23T09:58:52.191Z,100859.09
2022-09-23T10:02:21.843Z,100857.37
2022-09-23T10:05:46.668Z,100852.94
2022-09-23T10:09:04.772Z,100848.72
2022-09-23T10:12:18.758Z,100850.81
2022-09-23T10:15:30.884Z,100850.66
2022-09-23T10:18:39.295Z,100849.56
2022-09-23T10:21:42.785Z,100850.91
2022-09-23T10:24:52.696Z,100842.78
2022-09-23T10:27:55.205Z,100848.72
2022-09-23T10:31:27.061Z,100845.03
2022-09-23T10:34:33.922Z,100844.16
2022-09-23T10:37:45.373Z,100841.00
2022-09-23T10:41:06.435Z,100840.59
2022-09-23T10:44:39.655Z,100835.50
2022-09-23T10:48:01.252Z,100833.00
2022-09-23T10:51:31.718Z,100834.47
2022-09-23T10:54:57.223Z,100836.41
2022-09-23T10:58:17.678Z,100834.88
2022-09-23T11:01:41.678Z,100828.91
2022-09-23T11:04:54.755Z,100827.31
2022-09-23T11:08:00.429Z,100823.53
2022-09-23T11:11:23.707Z,100816.19
2022-09-23T11:14:26.136Z,100814.31
2022-09-23T11:17:31.784Z,100813.06
2022-09-23T11:21:01.202Z,100813.53
2022-09-23T11:24:31.209Z,100808.22
2022-09-23T11:27:59.411Z,100798.94
2022-09-23T11:31:26.800Z,100789.09
2022-09-23T11:34:41.879Z,100791.38
2022-09-23T11:38:05.925Z,100782.34
2022-09-23T11:41:30.636Z,100783.53
2022-09-23T11:44:41.160Z,100777.06
2022-09-23T11:48:18.584Z,100772.81
2022-09-23T11:52:09.476Z,100764.50
2022-09-23T11:55:22.735Z,100776.19
2022-09-23T11:58:31.523Z,100766.94
2022-09-23T12:01:42.068Z,100760.69
2022-09-23T12:05:13.082Z,100763.66
2022-09-23T12:08:33.955Z,100765.09
2022-09-23T12:11:39.744Z,100762.91
2022-09-23T12:14:57.874Z,100767.03
2022-09-23T12:18:31.402Z,100754.47
2022-09-23T12:21:51.142Z,100761.75
2022-09-23T12:24:59.604Z,100751.78
2022-09-23T12:28:12.491Z,100745.34
2022-09-23T12:31:22.037Z,100742.44
2022-09-23T12:34:39.332Z,100750.22
2022-09-23T12:37:43.296Z,100748.25
2022-09-23T12:40:47.072Z,100741.47
2022-09-23T12:43:55.313Z,100727.16
2022-09-23T12:47:25.441Z,100729.44
2022-09-23T12:50:47.757Z,100725.22
2022-09-23T12:53:54.694Z,100724.06
2022-09-23T12:56:59.066Z,100713.94
2022-09-23T13:00:13.804Z,100714.53
2022-09-23T13:03:41.237Z,100711.19
2022-09-23T13:07:05.189Z,100697.16
2022-09-23T13:10:27.839Z,100695.44
2022-09-23T13:13:45.506Z,100691.94
2022-09-23T13:16:49.357Z,100690.34
2022-09-23T13:20:00.247Z,100679.84
2022-09-23T13:23:15.944Z,100682.41
2022-09-23T13:26:18.639Z,100679.59
2022-09-23T13:29:46.439Z,100672.84
2022-09-23T13:33:14.208Z,100678.06
2022-09-23T13:36:19.430Z,100668.72
2022-09-23T13:39:26.680Z,100673.16
2022-09-23T13:42:30.505Z,100668.25
2022-09-23T13:45:38.858Z,100666.19
2022-09-23T13:48:45.077Z,100662.31
2022-09-23T13:51:47.684Z,100663.59
2022-09-23T13:54:50.983Z,100665.50
2022-09-23T13:58:24.010Z,100663.44
2022-09-23T14:01:33.217Z,100675.22
2022-09-23T14:04:36.106Z,100666.91
2022-09-23T14:07:38.784Z,100673.38
2022-09-23T14:10:48.255Z,100658.91
2022-09-23T14:13:55.418Z,100654.09
2022-09-23T14:16:59.109Z,100654.41
2022-09-23T14:20:01.867Z,100648.41
2022-09-23T14:23:07.157Z,100640.47
2022-09-23T14:26:10.394Z,100637.56
2022-09-23T14:29:20.103Z,100636.25
2022-09-23T14:32:26.860Z,100632.06
2022-09-23T14:35:42.327Z,100634.84
2022-09-23T14:38:53.966Z,100631.59
2022-09-23T14:41:57.356Z,100630.47
2022-09-23T14:45:05.211Z,100632.22
2022-09-23T14:48:23.062Z,100630.94
2022-09-23T14:51:36.241Z,100625.75
2022-09-23T14:54:39.004Z,100621.78
2022-09-23T14:57:42.925Z,100616.37
2022-09-23T15:00:54.295Z,100616.09
2022-09-23T15:04:27.823Z,100612.12
2022-09-23T15:07:30.759Z,100611.84
2022-09-23T15:10:37.692Z,100622.22
2022-09-23T15:13:46.546Z,100614.88
2022-09-23T15:16:49.234Z,100616.25
